sensor_id;sensor_type;location;lat;lon;timestamp;P1;durP1;ratioP1;P2;durP2;ratioP2
68523;SDS011;55524;51.380;13.372;2023-12-07T00:01:15;25.63;;;12.38;;
68523;SDS011;55524;51.380;13.372;2023-12-07T00:03:42;18.92;;;10.52;;
68523;SDS011;55524;51.380;13.372;2023-12-07T00:06:08;21.52;;;11.75;;
68523;SDS011;55524;51.380;13.372;2023-12-07T00:08:34;21.63;;;11.73;;
68523;SDS011;55524;51.380;13.372;2023-12-07T00:11:01;21.60;;;11.25;;
68523;SDS011;55524;51.380;13.372;2023-12-07T00:13:47;23.60;;;12.02;;
68523;SDS011;55524;51.380;13.372;2023-12-07T00:16:14;23.85;;;11.75;;
68523;SDS011;55524;51.380;13.372;2023-12-07T00:18:40;23.50;;;12.80;;
68523;SDS011;55524;51.380;13.372;2023-12-07T00:21:09;24.70;;;11.80;;
68523;SDS011;55524;51.380;13.372;2023-12-07T00:23:36;20.60;;;11.57;;
68523;SDS011;55524;51.380;13.372;2023-12-07T00:26:03;20.08;;;11.82;;
68523;SDS011;55524;51.380;13.372;2023-12-07T00:28:30;24.25;;;12.18;;
68523;SDS011;55524;51.380;13.372;2023-12-07T00:30:56;21.40;;;12.25;;
68523;SDS011;55524;51.380;13.372;2023-12-07T00:33:22;22.00;;;11.55;;
68523;SDS011;55524;51.380;13.372;2023-12-07T00:35:49;20.35;;;11.57;;
68523;SDS011;55524;51.380;13.372;2023-12-07T00:38:15;22.35;;;11.77;;
68523;SDS011;55524;51.380;13.372;2023-12-07T00:40:42;22.05;;;12.13;;
68523;SDS011;55524;51.380;13.372;2023-12-07T00:43:12;22.70;;;12.07;;
68523;SDS011;55524;51.380;13.372;2023-12-07T00:45:38;23.75;;;12.43;;
68523;SDS011;55524;51.380;13.372;2023-12-07T00:48:04;26.52;;;13.05;;
68523;SDS011;55524;51.380;13.372;2023-12-07T00:50:31;20.85;;;11.45;;
68523;SDS011;55524;51.380;13.372;2023-12-07T00:52:57;23.15;;;12.18;;
68523;SDS011;55524;51.380;13.372;2023-12-07T00:55:23;20.90;;;12.02;;
68523;SDS011;55524;51.380;13.372;2023-12-07T00:57:50;23.95;;;12.23;;
68523;SDS011;55524;51.380;13.372;2023-12-07T01:00:16;23.98;;;12.15;;
68523;SDS011;55524;51.380;13.372;2023-12-07T01:02:43;27.60;;;13.25;;
68523;SDS011;55524;51.380;13.372;2023-12-07T01:05:10;23.55;;;12.27;;
68523;SDS011;55524;51.380;13.372;2023-12-07T01:07:36;26.77;;;12.70;;
68523;SDS011;55524;51.380;13.372;2023-12-07T01:10:02;25.77;;;13.10;;
68523;SDS011;55524;51.380;13.372;2023-12-07T01:12:29;23.13;;;12.85;;
68523;SDS011;55524;51.380;13.372;2023-12-07T01:14:56;24.23;;;12.35;;
68523;SDS011;55524;51.380;13.372;2023-12-07T01:17:22;24.83;;;12.73;;
68523;SDS011;55524;51.380;13.372;2023-12-07T01:19:48;23.23;;;12.43;;
68523;SDS011;55524;51.380;13.372;2023-12-07T01:22:15;24.20;;;12.50;;
68523;SDS011;55524;51.380;13.372;2023-12-07T01:24:41;26.17;;;13.30;;
68523;SDS011;55524;51.380;13.372;2023-12-07T01:27:08;24.65;;;12.80;;
68523;SDS011;55524;51.380;13.372;2023-12-07T01:29:35;26.05;;;13.02;;
68523;SDS011;55524;51.380;13.372;2023-12-07T01:32:01;22.60;;;12.57;;
68523;SDS011;55524;51.380;13.372;2023-12-07T01:34:28;24.23;;;12.05;;
68523;SDS011;55524;51.380;13.372;2023-12-07T01:36:54;22.60;;;12.63;;
68523;SDS011;55524;51.380;13.372;2023-12-07T01:39:20;25.00;;;12.50;;
68523;SDS011;55524;51.380;13.372;2023-12-07T01:41:47;23.83;;;12.57;;
68523;SDS011;55524;51.380;13.372;2023-12-07T01:44:13;23.55;;;12.90;;
68523;SDS011;55524;51.380;13.372;2023-12-07T01:46:39;22.83;;;12.77;;
68523;SDS011;55524;51.380;13.372;2023-12-07T01:49:06;22.92;;;12.73;;
68523;SDS011;55524;51.380;13.372;2023-12-07T01:51:33;23.52;;;12.50;;
68523;SDS011;55524;51.380;13.372;2023-12-07T01:54:00;25.92;;;12.93;;
68523;SDS011;55524;51.380;13.372;2023-12-07T01:56:26;25.73;;;12.93;;
68523;SDS011;55524;51.380;13.372;2023-12-07T01:58:53;25.30;;;13.00;;
68523;SDS011;55524;51.380;13.372;2023-12-07T02:01:19;25.40;;;13.57;;
68523;SDS011;55524;51.380;13.372;2023-12-07T02:03:46;26.83;;;12.50;;
68523;SDS011;55524;51.380;13.372;2023-12-07T02:06:13;24.58;;;13.77;;
68523;SDS011;55524;51.380;13.372;2023-12-07T02:08:39;28.75;;;14.13;;
68523;SDS011;55524;51.380;13.372;2023-12-07T02:11:07;24.13;;;13.07;;
68523;SDS011;55524;51.380;13.372;2023-12-07T02:13:38;24.42;;;12.90;;
68523;SDS011;55524;51.380;13.372;2023-12-07T02:16:07;25.13;;;13.55;;
68523;SDS011;55524;51.380;13.372;2023-12-07T02:21:44;24.90;;;12.70;;
68523;SDS011;55524;51.380;13.372;2023-12-07T02:24:12;28.35;;;13.43;;
68523;SDS011;55524;51.380;13.372;2023-12-07T02:26:52;27.17;;;13.25;;
68523;SDS011;55524;51.380;13.372;2023-12-07T02:29:18;24.23;;;13.48;;
68523;SDS011;55524;51.380;13.372;2023-12-07T02:31:44;25.83;;;13.13;;
68523;SDS011;55524;51.380;13.372;2023-12-07T02:34:11;23.75;;;13.10;;
68523;SDS011;55524;51.380;13.372;2023-12-07T02:36:38;24.52;;;12.80;;
68523;SDS011;55524;51.380;13.372;2023-12-07T02:39:06;25.98;;;12.95;;
68523;SDS011;55524;51.380;13.372;2023-12-07T02:41:37;27.17;;;12.90;;
68523;SDS011;55524;51.380;13.372;2023-12-07T02:44:04;25.83;;;13.15;;
68523;SDS011;55524;51.380;13.372;2023-12-07T02:46:32;27.13;;;13.00;;
68523;SDS011;55524;51.380;13.372;2023-12-07T02:48:58;26.50;;;12.85;;
68523;SDS011;55524;51.380;13.372;2023-12-07T02:51:25;23.67;;;12.50;;
68523;SDS011;55524;51.380;13.372;2023-12-07T02:53:51;22.45;;;12.80;;
68523;SDS011;55524;51.380;13.372;2023-12-07T02:56:17;22.98;;;12.73;;
68523;SDS011;55524;51.380;13.372;2023-12-07T02:58:43;25.20;;;12.77;;
68523;SDS011;55524;51.380;13.372;2023-12-07T03:01:10;27.50;;;13.88;;
68523;SDS011;55524;51.380;13.372;2023-12-07T03:03:36;25.95;;;13.90;;
68523;SDS011;55524;51.380;13.372;2023-12-07T03:06:03;26.85;;;13.90;;
68523;SDS011;55524;51.380;13.372;2023-12-07T03:08:30;27.55;;;13.48;;
68523;SDS011;55524;51.380;13.372;2023-12-07T03:10:56;27.58;;;13.07;;
68523;SDS011;55524;51.380;13.372;2023-12-07T03:13:23;25.45;;;13.43;;
68523;SDS011;55524;51.380;13.372;2023-12-07T03:15:49;26.83;;;13.75;;
68523;SDS011;55524;51.380;13.372;2023-12-07T03:18:15;26.00;;;13.23;;
68523;SDS011;55524;51.380;13.372;2023-12-07T03:20:41;25.02;;;13.00;;
68523;SDS011;55524;51.380;13.372;2023-12-07T03:23:08;24.98;;;13.32;;
68523;SDS011;55524;51.380;13.372;2023-12-07T03:25:34;24.00;;;13.52;;
68523;SDS011;55524;51.380;13.372;2023-12-07T03:28:01;29.88;;;13.70;;
68523;SDS011;55524;51.380;13.372;2023-12-07T03:30:27;27.70;;;13.88;;
68523;SDS011;55524;51.380;13.372;2023-12-07T03:32:53;27.05;;;13.75;;
68523;SDS011;55524;51.380;13.372;2023-12-07T03:35:19;27.50;;;13.27;;
68523;SDS011;55524;51.380;13.372;2023-12-07T03:37:46;27.40;;;14.40;;
68523;SDS011;55524;51.380;13.372;2023-12-07T03:40:12;27.35;;;13.80;;
68523;SDS011;55524;51.380;13.372;2023-12-07T03:42:38;31.00;;;13.48;;
68523;SDS011;55524;51.380;13.372;2023-12-07T03:45:05;27.27;;;13.75;;
68523;SDS011;55524;51.380;13.372;2023-12-07T03:47:32;28.27;;;14.18;;
68523;SDS011;55524;51.380;13.372;2023-12-07T03:49:58;32.38;;;14.63;;
68523;SDS011;55524;51.380;13.372;2023-12-07T03:52:24;31.08;;;15.45;;
68523;SDS011;55524;51.380;13.372;2023-12-07T03:54:51;31.58;;;15.55;;
68523;SDS011;55524;51.380;13.372;2023-12-07T03:57:17;29.77;;;15.38;;
68523;SDS011;55524;51.380;13.372;2023-12-07T03:59:43;32.10;;;15.40;;
68523;SDS011;55524;51.380;13.372;2023-12-07T04:02:11;30.27;;;14.90;;
68523;SDS011;55524;51.380;13.372;2023-12-07T04:04:38;32.00;;;15.68;;
68523;SDS011;55524;51.380;13.372;2023-12-07T04:07:04;33.72;;;16.10;;
68523;SDS011;55524;51.380;13.372;2023-12-07T04:09:30;35.17;;;16.02;;
68523;SDS011;55524;51.380;13.372;2023-12-07T04:11:56;32.78;;;15.52;;
68523;SDS011;55524;51.380;13.372;2023-12-07T04:14:26;33.33;;;15.50;;
68523;SDS011;55524;51.380;13.372;2023-12-07T04:16:55;33.25;;;15.40;;
68523;SDS011;55524;51.380;13.372;2023-12-07T04:19:22;34.67;;;15.63;;
68523;SDS011;55524;51.380;13.372;2023-12-07T04:21:48;33.10;;;15.57;;
68523;SDS011;55524;51.380;13.372;2023-12-07T04:24:14;32.00;;;15.43;;
68523;SDS011;55524;51.380;13.372;2023-12-07T04:26:41;32.55;;;15.68;;
68523;SDS011;55524;51.380;13.372;2023-12-07T04:29:07;30.88;;;14.70;;
68523;SDS011;55524;51.380;13.372;2023-12-07T04:31:33;35.45;;;15.35;;
68523;SDS011;55524;51.380;13.372;2023-12-07T04:34:01;29.30;;;14.48;;
68523;SDS011;55524;51.380;13.372;2023-12-07T04:36:27;31.00;;;14.30;;
68523;SDS011;55524;51.380;13.372;2023-12-07T04:38:53;32.65;;;15.45;;
68523;SDS011;55524;51.380;13.372;2023-12-07T04:41:20;34.20;;;15.18;;
68523;SDS011;55524;51.380;13.372;2023-12-07T04:43:46;33.45;;;14.70;;
68523;SDS011;55524;51.380;13.372;2023-12-07T04:46:12;33.83;;;15.00;;
68523;SDS011;55524;51.380;13.372;2023-12-07T04:48:39;32.33;;;14.52;;
68523;SDS011;55524;51.380;13.372;2023-12-07T04:51:05;31.52;;;15.23;;
68523;SDS011;55524;51.380;13.372;2023-12-07T04:53:31;31.65;;;14.65;;
68523;SDS011;55524;51.380;13.372;2023-12-07T04:55:58;34.30;;;15.43;;
68523;SDS011;55524;51.380;13.372;2023-12-07T04:58:24;30.05;;;14.63;;
68523;SDS011;55524;51.380;13.372;2023-12-07T05:00:50;29.83;;;14.32;;
68523;SDS011;55524;51.380;13.372;2023-12-07T05:03:17;30.02;;;14.30;;
68523;SDS011;55524;51.380;13.372;2023-12-07T05:05:43;31.23;;;15.23;;
68523;SDS011;55524;51.380;13.372;2023-12-07T05:08:10;33.33;;;14.60;;
68523;SDS011;55524;51.380;13.372;2023-12-07T05:10:36;28.08;;;14.23;;
68523;SDS011;55524;51.380;13.372;2023-12-07T05:13:03;30.83;;;14.25;;
68523;SDS011;55524;51.380;13.372;2023-12-07T05:15:29;32.78;;;14.25;;
68523;SDS011;55524;51.380;13.372;2023-12-07T05:17:55;29.70;;;13.13;;
68523;SDS011;55524;51.380;13.372;2023-12-07T05:20:22;29.52;;;14.35;;
68523;SDS011;55524;51.380;13.372;2023-12-07T05:22:55;28.58;;;13.23;;
68523;SDS011;55524;51.380;13.372;2023-12-07T05:25:22;29.83;;;14.18;;
68523;SDS011;55524;51.380;13.372;2023-12-07T05:27:54;31.33;;;14.65;;
68523;SDS011;55524;51.380;13.372;2023-12-07T05:30:22;32.35;;;14.93;;
68523;SDS011;55524;51.380;13.372;2023-12-07T05:33:09;29.92;;;14.25;;
68523;SDS011;55524;51.380;13.372;2023-12-07T05:35:46;31.35;;;14.45;;
68523;SDS011;55524;51.380;13.372;2023-12-07T05:38:13;31.42;;;15.25;;
68523;SDS011;55524;51.380;13.372;2023-12-07T05:40:42;28.52;;;14.20;;
68523;SDS011;55524;51.380;13.372;2023-12-07T05:43:09;31.63;;;14.43;;
68523;SDS011;55524;51.380;13.372;2023-12-07T05:48:59;28.02;;;13.35;;
68523;SDS011;55524;51.380;13.372;2023-12-07T05:51:34;28.98;;;13.18;;
68523;SDS011;55524;51.380;13.372;2023-12-07T05:54:03;28.40;;;13.82;;
68523;SDS011;55524;51.380;13.372;2023-12-07T05:56:31;29.52;;;13.48;;
68523;SDS011;55524;51.380;13.372;2023-12-07T05:58:57;30.63;;;14.30;;
68523;SDS011;55524;51.380;13.372;2023-12-07T06:01:24;29.63;;;14.18;;
68523;SDS011;55524;51.380;13.372;2023-12-07T06:03:50;30.33;;;14.35;;
68523;SDS011;55524;51.380;13.372;2023-12-07T06:06:17;31.88;;;14.32;;
68523;SDS011;55524;51.380;13.372;2023-12-07T06:08:44;27.80;;;13.68;;
68523;SDS011;55524;51.380;13.372;2023-12-07T06:11:10;30.40;;;13.27;;
68523;SDS011;55524;51.380;13.372;2023-12-07T06:13:37;31.33;;;14.23;;
68523;SDS011;55524;51.380;13.372;2023-12-07T06:16:04;30.05;;;14.30;;
68523;SDS011;55524;51.380;13.372;2023-12-07T06:18:30;29.98;;;14.10;;
68523;SDS011;55524;51.380;13.372;2023-12-07T06:21:00;33.88;;;13.63;;
68523;SDS011;55524;51.380;13.372;2023-12-07T06:23:28;34.88;;;14.15;;
68523;SDS011;55524;51.380;13.372;2023-12-07T06:25:54;30.92;;;14.07;;
68523;SDS011;55524;51.380;13.372;2023-12-07T06:28:21;28.70;;;13.43;;
68523;SDS011;55524;51.380;13.372;2023-12-07T06:30:47;30.33;;;13.98;;
68523;SDS011;55524;51.380;13.372;2023-12-07T06:33:13;34.50;;;14.05;;
68523;SDS011;55524;51.380;13.372;2023-12-07T06:35:40;33.85;;;15.00;;
68523;SDS011;55524;51.380;13.372;2023-12-07T06:38:09;26.27;;;13.02;;
68523;SDS011;55524;51.380;13.372;2023-12-07T06:40:38;32.40;;;15.43;;
68523;SDS011;55524;51.380;13.372;2023-12-07T06:43:05;32.67;;;13.63;;
68523;SDS011;55524;51.380;13.372;2023-12-07T06:45:31;32.25;;;14.35;;
68523;SDS011;55524;51.380;13.372;2023-12-07T06:47:58;36.35;;;14.55;;
68523;SDS011;55524;51.380;13.372;2023-12-07T06:50:26;31.25;;;13.73;;
68523;SDS011;55524;51.380;13.372;2023-12-07T06:52:53;34.65;;;15.15;;
68523;SDS011;55524;51.380;13.372;2023-12-07T06:55:20;39.60;;;15.00;;
68523;SDS011;55524;51.380;13.372;2023-12-07T06:57:47;32.88;;;14.23;;
68523;SDS011;55524;51.380;13.372;2023-12-07T07:00:14;31.75;;;13.63;;
68523;SDS011;55524;51.380;13.372;2023-12-07T07:02:42;34.33;;;15.05;;
68523;SDS011;55524;51.380;13.372;2023-12-07T07:05:17;29.15;;;13.98;;
68523;SDS011;55524;51.380;13.372;2023-12-07T07:07:45;29.95;;;13.93;;
68523;SDS011;55524;51.380;13.372;2023-12-07T07:10:11;29.88;;;13.98;;
68523;SDS011;55524;51.380;13.372;2023-12-07T07:12:38;38.47;;;15.65;;
68523;SDS011;55524;51.380;13.372;2023-12-07T07:15:07;31.00;;;14.45;;
68523;SDS011;55524;51.380;13.372;2023-12-07T07:17:34;30.98;;;13.65;;
68523;SDS011;55524;51.380;13.372;2023-12-07T07:20:00;32.67;;;14.13;;
68523;SDS011;55524;51.380;13.372;2023-12-07T07:22:27;28.40;;;13.50;;
68523;SDS011;55524;51.380;13.372;2023-12-07T07:24:53;28.77;;;13.63;;
68523;SDS011;55524;51.380;13.372;2023-12-07T07:27:19;34.88;;;14.77;;
68523;SDS011;55524;51.380;13.372;2023-12-07T07:29:46;33.97;;;14.23;;
68523;SDS011;55524;51.380;13.372;2023-12-07T07:32:15;33.17;;;14.75;;
68523;SDS011;55524;51.380;13.372;2023-12-07T07:34:42;35.95;;;14.10;;
68523;SDS011;55524;51.380;13.372;2023-12-07T07:37:28;33.10;;;14.18;;
68523;SDS011;55524;51.380;13.372;2023-12-07T07:39:55;33.58;;;13.05;;
68523;SDS011;55524;51.380;13.372;2023-12-07T07:42:21;32.05;;;13.98;;
68523;SDS011;55524;51.380;13.372;2023-12-07T07:44:48;28.60;;;13.07;;
68523;SDS011;55524;51.380;13.372;2023-12-07T07:47:14;33.33;;;13.98;;
68523;SDS011;55524;51.380;13.372;2023-12-07T07:49:41;33.58;;;14.57;;
68523;SDS011;55524;51.380;13.372;2023-12-07T07:52:07;32.60;;;14.07;;
68523;SDS011;55524;51.380;13.372;2023-12-07T07:57:56;30.83;;;13.13;;
68523;SDS011;55524;51.380;13.372;2023-12-07T08:00:22;34.13;;;14.32;;
68523;SDS011;55524;51.380;13.372;2023-12-07T08:02:51;34.30;;;14.70;;
68523;SDS011;55524;51.380;13.372;2023-12-07T08:05:17;35.20;;;13.80;;
68523;SDS011;55524;51.380;13.372;2023-12-07T08:08:24;30.80;;;13.55;;
68523;SDS011;55524;51.380;13.372;2023-12-07T08:10:51;35.72;;;14.75;;
68523;SDS011;55524;51.380;13.372;2023-12-07T08:13:18;32.60;;;14.50;;
68523;SDS011;55524;51.380;13.372;2023-12-07T08:15:44;31.80;;;13.63;;
68523;SDS011;55524;51.380;13.372;2023-12-07T08:18:10;32.45;;;13.50;;
68523;SDS011;55524;51.380;13.372;2023-12-07T08:20:37;36.40;;;14.20;;
68523;SDS011;55524;51.380;13.372;2023-12-07T08:23:03;31.08;;;13.23;;
68523;SDS011;55524;51.380;13.372;2023-12-07T08:25:30;31.85;;;14.15;;
68523;SDS011;55524;51.380;13.372;2023-12-07T08:27:57;33.05;;;14.05;;
68523;SDS011;55524;51.380;13.372;2023-12-07T08:30:23;33.75;;;14.35;;
68523;SDS011;55524;51.380;13.372;2023-12-07T08:32:50;30.70;;;13.80;;
68523;SDS011;55524;51.380;13.372;2023-12-07T08:35:16;35.25;;;14.27;;
68523;SDS011;55524;51.380;13.372;2023-12-07T08:37:42;29.85;;;13.95;;
68523;SDS011;55524;51.380;13.372;2023-12-07T08:40:09;31.33;;;13.32;;
68523;SDS011;55524;51.380;13.372;2023-12-07T08:42:36;32.70;;;13.63;;
68523;SDS011;55524;51.380;13.372;2023-12-07T08:45:03;32.05;;;14.35;;
68523;SDS011;55524;51.380;13.372;2023-12-07T08:47:33;32.35;;;14.48;;
68523;SDS011;55524;51.380;13.372;2023-12-07T08:50:00;33.92;;;14.88;;
68523;SDS011;55524;51.380;13.372;2023-12-07T08:52:26;35.55;;;14.90;;
68523;SDS011;55524;51.380;13.372;2023-12-07T08:54:53;31.17;;;13.88;;
68523;SDS011;55524;51.380;13.372;2023-12-07T08:57:19;34.47;;;14.35;;
68523;SDS011;55524;51.380;13.372;2023-12-07T08:59:46;31.65;;;13.63;;
68523;SDS011;55524;51.380;13.372;2023-12-07T09:02:12;37.85;;;14.98;;
68523;SDS011;55524;51.380;13.372;2023-12-07T09:04:39;34.63;;;13.90;;
68523;SDS011;55524;51.380;13.372;2023-12-07T09:07:05;32.17;;;13.63;;
68523;SDS011;55524;51.380;13.372;2023-12-07T09:09:32;36.92;;;14.70;;
68523;SDS011;55524;51.380;13.372;2023-12-07T09:11:58;31.00;;;12.73;;
68523;SDS011;55524;51.380;13.372;2023-12-07T09:14:25;28.75;;;13.55;;
68523;SDS011;55524;51.380;13.372;2023-12-07T09:16:54;35.72;;;13.55;;
68523;SDS011;55524;51.380;13.372;2023-12-07T09:19:21;28.20;;;12.77;;
68523;SDS011;55524;51.380;13.372;2023-12-07T09:21:48;30.52;;;14.02;;
68523;SDS011;55524;51.380;13.372;2023-12-07T09:24:15;32.53;;;14.27;;
68523;SDS011;55524;51.380;13.372;2023-12-07T09:26:41;31.83;;;13.57;;
68523;SDS011;55524;51.380;13.372;2023-12-07T09:29:07;32.45;;;13.73;;
68523;SDS011;55524;51.380;13.372;2023-12-07T09:31:40;32.03;;;14.27;;
68523;SDS011;55524;51.380;13.372;2023-12-07T09:34:06;34.03;;;13.70;;
68523;SDS011;55524;51.380;13.372;2023-12-07T09:36:33;32.58;;;14.48;;
68523;SDS011;55524;51.380;13.372;2023-12-07T09:39:00;34.05;;;13.95;;
68523;SDS011;55524;51.380;13.372;2023-12-07T09:41:27;30.85;;;14.93;;
68523;SDS011;55524;51.380;13.372;2023-12-07T09:43:54;32.33;;;15.35;;
68523;SDS011;55524;51.380;13.372;2023-12-07T09:46:21;33.88;;;15.02;;
68523;SDS011;55524;51.380;13.372;2023-12-07T09:48:48;29.98;;;14.73;;
68523;SDS011;55524;51.380;13.372;2023-12-07T09:51:15;34.15;;;15.25;;
68523;SDS011;55524;51.380;13.372;2023-12-07T09:53:42;33.85;;;15.07;;
68523;SDS011;55524;51.380;13.372;2023-12-07T09:56:16;35.67;;;14.77;;
68523;SDS011;55524;51.380;13.372;2023-12-07T09:58:42;33.10;;;15.20;;
68523;SDS011;55524;51.380;13.372;2023-12-07T10:01:09;36.63;;;15.23;;
68523;SDS011;55524;51.380;13.372;2023-12-07T10:03:39;39.25;;;16.05;;
68523;SDS011;55524;51.380;13.372;2023-12-07T10:06:05;34.25;;;15.85;;
68523;SDS011;55524;51.380;13.372;2023-12-07T10:08:32;35.47;;;15.63;;
68523;SDS011;55524;51.380;13.372;2023-12-07T10:11:09;35.55;;;16.35;;
68523;SDS011;55524;51.380;13.372;2023-12-07T10:13:38;36.10;;;15.80;;
68523;SDS011;55524;51.380;13.372;2023-12-07T10:18:37;35.53;;;15.48;;
68523;SDS011;55524;51.380;13.372;2023-12-07T10:21:14;37.22;;;16.08;;
68523;SDS011;55524;51.380;13.372;2023-12-07T10:23:56;35.55;;;15.27;;
68523;SDS011;55524;51.380;13.372;2023-12-07T10:26:40;41.63;;;17.77;;
68523;SDS011;55524;51.380;13.372;2023-12-07T10:29:08;40.05;;;16.95;;
68523;SDS011;55524;51.380;13.372;2023-12-07T10:31:34;43.25;;;18.45;;
68523;SDS011;55524;51.380;13.372;2023-12-07T10:34:02;38.13;;;17.40;;
68523;SDS011;55524;51.380;13.372;2023-12-07T10:36:29;43.75;;;17.77;;
68523;SDS011;55524;51.380;13.372;2023-12-07T10:38:56;38.83;;;17.35;;
68523;SDS011;55524;51.380;13.372;2023-12-07T10:41:23;44.90;;;17.58;;
68523;SDS011;55524;51.380;13.372;2023-12-07T10:47:12;35.67;;;16.10;;
68523;SDS011;55524;51.380;13.372;2023-12-07T10:49:40;37.55;;;16.05;;
68523;SDS011;55524;51.380;13.372;2023-12-07T10:52:12;40.50;;;17.25;;
68523;SDS011;55524;51.380;13.372;2023-12-07T10:54:43;39.95;;;16.95;;
68523;SDS011;55524;51.380;13.372;2023-12-07T10:57:13;40.88;;;17.83;;
68523;SDS011;55524;51.380;13.372;2023-12-07T10:59:41;33.85;;;15.63;;
68523;SDS011;55524;51.380;13.372;2023-12-07T11:02:17;39.97;;;17.38;;
68523;SDS011;55524;51.380;13.372;2023-12-07T11:04:46;40.78;;;15.82;;
68523;SDS011;55524;51.380;13.372;2023-12-07T11:07:14;41.78;;;16.90;;
68523;SDS011;55524;51.380;13.372;2023-12-07T11:09:47;43.78;;;17.52;;
68523;SDS011;55524;51.380;13.372;2023-12-07T11:12:24;37.97;;;16.40;;
68523;SDS011;55524;51.380;13.372;2023-12-07T11:15:03;38.80;;;18.20;;
68523;SDS011;55524;51.380;13.372;2023-12-07T11:17:47;37.00;;;16.23;;
68523;SDS011;55524;51.380;13.372;2023-12-07T11:20:40;35.47;;;16.17;;
68523;SDS011;55524;51.380;13.372;2023-12-07T11:23:07;35.92;;;16.30;;
68523;SDS011;55524;51.380;13.372;2023-12-07T11:25:42;33.97;;;15.65;;
68523;SDS011;55524;51.380;13.372;2023-12-07T11:28:10;37.28;;;16.35;;
68523;SDS011;55524;51.380;13.372;2023-12-07T11:30:37;38.28;;;16.10;;
68523;SDS011;55524;51.380;13.372;2023-12-07T11:33:07;39.38;;;16.45;;
68523;SDS011;55524;51.380;13.372;2023-12-07T11:38:25;37.22;;;16.00;;
68523;SDS011;55524;51.380;13.372;2023-12-07T11:40:51;39.38;;;17.15;;
68523;SDS011;55524;51.380;13.372;2023-12-07T11:43:40;42.97;;;17.25;;
68523;SDS011;55524;51.380;13.372;2023-12-07T11:46:09;40.50;;;16.40;;
68523;SDS011;55524;51.380;13.372;2023-12-07T11:48:36;39.03;;;15.80;;
68523;SDS011;55524;51.380;13.372;2023-12-07T11:51:03;39.33;;;15.95;;
68523;SDS011;55524;51.380;13.372;2023-12-07T11:53:36;39.17;;;16.50;;
68523;SDS011;55524;51.380;13.372;2023-12-07T11:56:04;39.13;;;16.00;;
68523;SDS011;55524;51.380;13.372;2023-12-07T11:58:32;37.42;;;16.50;;
68523;SDS011;55524;51.380;13.372;2023-12-07T12:01:00;36.95;;;17.05;;
68523;SDS011;55524;51.380;13.372;2023-12-07T12:03:28;35.88;;;16.05;;
68523;SDS011;55524;51.380;13.372;2023-12-07T12:06:01;38.42;;;17.10;;
68523;SDS011;55524;51.380;13.372;2023-12-07T12:08:36;35.45;;;16.98;;
68523;SDS011;55524;51.380;13.372;2023-12-07T12:11:04;37.67;;;15.10;;
68523;SDS011;55524;51.380;13.372;2023-12-07T12:13:35;37.72;;;16.52;;
68523;SDS011;55524;51.380;13.372;2023-12-07T12:16:02;33.88;;;15.38;;
68523;SDS011;55524;51.380;13.372;2023-12-07T12:18:38;35.33;;;15.60;;
68523;SDS011;55524;51.380;13.372;2023-12-07T12:21:06;39.40;;;15.90;;
68523;SDS011;55524;51.380;13.372;2023-12-07T12:23:34;32.75;;;15.10;;
68523;SDS011;55524;51.380;13.372;2023-12-07T12:26:21;37.08;;;15.80;;
68523;SDS011;55524;51.380;13.372;2023-12-07T12:28:47;38.63;;;16.10;;
68523;SDS011;55524;51.380;13.372;2023-12-07T12:31:14;35.55;;;15.63;;
68523;SDS011;55524;51.380;13.372;2023-12-07T12:33:40;34.40;;;15.65;;
68523;SDS011;55524;51.380;13.372;2023-12-07T12:36:07;34.47;;;15.38;;
68523;SDS011;55524;51.380;13.372;2023-12-07T12:38:35;35.35;;;14.77;;
68523;SDS011;55524;51.380;13.372;2023-12-07T12:41:02;35.45;;;15.35;;
68523;SDS011;55524;51.380;13.372;2023-12-07T12:43:29;37.22;;;15.30;;
68523;SDS011;55524;51.380;13.372;2023-12-07T12:45:57;35.33;;;15.75;;
68523;SDS011;55524;51.380;13.372;2023-12-07T12:48:24;32.25;;;14.48;;
68523;SDS011;55524;51.380;13.372;2023-12-07T12:50:50;36.95;;;15.77;;
68523;SDS011;55524;51.380;13.372;2023-12-07T12:53:16;38.53;;;16.08;;
68523;SDS011;55524;51.380;13.372;2023-12-07T12:55:42;34.97;;;15.27;;
68523;SDS011;55524;51.380;13.372;2023-12-07T12:58:12;37.72;;;16.52;;
68523;SDS011;55524;51.380;13.372;2023-12-07T13:00:42;37.42;;;16.35;;
68523;SDS011;55524;51.380;13.372;2023-12-07T13:03:09;37.78;;;15.95;;
68523;SDS011;55524;51.380;13.372;2023-12-07T13:05:38;34.25;;;15.98;;
68523;SDS011;55524;51.380;13.372;2023-12-07T13:08:04;38.13;;;16.52;;
68523;SDS011;55524;51.380;13.372;2023-12-07T13:10:31;40.92;;;17.27;;
68523;SDS011;55524;51.380;13.372;2023-12-07T13:12:58;36.13;;;16.23;;
68523;SDS011;55524;51.380;13.372;2023-12-07T13:15:25;35.22;;;15.70;;
68523;SDS011;55524;51.380;13.372;2023-12-07T13:17:51;42.80;;;16.13;;
68523;SDS011;55524;51.380;13.372;2023-12-07T13:20:18;37.28;;;15.43;;
68523;SDS011;55524;51.380;13.372;2023-12-07T13:22:44;35.25;;;16.67;;
68523;SDS011;55524;51.380;13.372;2023-12-07T13:25:11;33.83;;;15.63;;
68523;SDS011;55524;51.380;13.372;2023-12-07T13:27:39;34.95;;;15.43;;
68523;SDS011;55524;51.380;13.372;2023-12-07T13:30:08;31.98;;;14.35;;
68523;SDS011;55524;51.380;13.372;2023-12-07T13:32:34;34.00;;;16.33;;
68523;SDS011;55524;51.380;13.372;2023-12-07T13:35:13;32.75;;;15.45;;
68523;SDS011;55524;51.380;13.372;2023-12-07T13:37:39;35.50;;;15.95;;
68523;SDS011;55524;51.380;13.372;2023-12-07T13:40:06;32.28;;;15.40;;
68523;SDS011;55524;51.380;13.372;2023-12-07T13:42:35;30.85;;;15.15;;
68523;SDS011;55524;51.380;13.372;2023-12-07T13:45:02;36.17;;;15.90;;
68523;SDS011;55524;51.380;13.372;2023-12-07T13:47:29;35.92;;;14.98;;
68523;SDS011;55524;51.380;13.372;2023-12-07T13:49:58;33.53;;;14.93;;
68523;SDS011;55524;51.380;13.372;2023-12-07T13:52:25;35.28;;;16.83;;
68523;SDS011;55524;51.380;13.372;2023-12-07T13:54:53;34.58;;;15.25;;
68523;SDS011;55524;51.380;13.372;2023-12-07T13:57:21;33.97;;;14.88;;
68523;SDS011;55524;51.380;13.372;2023-12-07T13:59:51;36.88;;;16.00;;
68523;SDS011;55524;51.380;13.372;2023-12-07T14:02:18;36.45;;;16.42;;
68523;SDS011;55524;51.380;13.372;2023-12-07T14:04:44;37.40;;;16.23;;
68523;SDS011;55524;51.380;13.372;2023-12-07T14:07:15;38.15;;;16.40;;
68523;SDS011;55524;51.380;13.372;2023-12-07T14:09:49;36.03;;;15.02;;
68523;SDS011;55524;51.380;13.372;2023-12-07T14:12:37;34.35;;;16.13;;
68523;SDS011;55524;51.380;13.372;2023-12-07T14:15:03;33.17;;;15.13;;
68523;SDS011;55524;51.380;13.372;2023-12-07T14:17:30;39.80;;;16.00;;
68523;SDS011;55524;51.380;13.372;2023-12-07T14:20:02;38.08;;;16.40;;
68523;SDS011;55524;51.380;13.372;2023-12-07T14:22:30;33.50;;;15.63;;
68523;SDS011;55524;51.380;13.372;2023-12-07T14:24:56;35.10;;;16.17;;
68523;SDS011;55524;51.380;13.372;2023-12-07T14:27:22;34.72;;;15.73;;
68523;SDS011;55524;51.380;13.372;2023-12-07T14:29:49;35.13;;;15.93;;
68523;SDS011;55524;51.380;13.372;2023-12-07T14:32:15;34.35;;;15.55;;